AirNav   TITAN Aviation Fuels
 
 440 users online  

IN6 Hudson Lake Seaplane Base
Hudson Lake, Indiana, USA


FAA INFORMATION EFFECTIVE 22 APRIL 2021

Location

FAA Identifier: IN6
Lat/Long: 41-42-50.2800N 086-32-45.6600W
41-42.838000N 086-32.761000W
41.7139667,-86.5460167
(estimated)
Elevation: 761 ft. / 232 m (estimated)
From city: 1 mile NW of HUDSON LAKE, IN
Time zone: UTC -5 (UTC -6 during Standard Time)
Zip code: 46552

Seaplane Base Operations

Seaplane Base use: Open to the public
Activation date: 06/2020
Control tower: no
ARTCC: CHICAGO CENTER
FSS: TERRE HAUTE FLIGHT SERVICE STATION
Attendance: 
Segmented circle: no

Seaplane Base Communications

CTAF: 122.9
WX ASOS at SBN (10 nm E): PHONE 574-251-2656
WX AWOS-3 at PPO (12 nm SW): 119.825 (219-326-6916)
WX AWOS-3 at MGC (12 nm W): 128.450 (219-878-1106)

Nearby radio navigation aids

VOR radial/distance  VOR name  Freq  Var
GIJr252/10.7GIPPER VORTAC115.4000E
OXIr011/24.0KNOX VOR/DME115.6000E
GSHr296/25.9GOSHEN VORTAC113.7000E
ELXr216/32.0KEELER VOR/DME116.6000E

 
NDB name  Hdg/Dist  Freq  Var  ID
MISHA275/14.734103WSB ... -...

Seaplane Base Services

Runway Information

Runway 11W/29W

Dimensions: 2675 x 100 ft. / 815 x 30 m
Surface: water
RUNWAY 11W  RUNWAY 29W
Latitude: 41-42.912667N41-42.767000N
Longitude: 086-33.044500W086-32.489833W
Elevation: 761.0 ft.761.0 ft.
Traffic pattern: leftleft

Seaplane Base Ownership and Management from official FAA records

Ownership: Publicly-owned
Owner: INDIANA DEPT OF NATURAL RESOURCES
402 WEST WASHINGTON ST RM W-255D
INDIANAPOLIS, IN 46204
Phone 317-232-0935
Manager: KENTON TURNER
402 WEST WASHINGTON ST RM W-255D
INDIANAPOLIS, IN 46204
Phone 317-232-0935

Seaplane Base Operational Statistics

Aircraft based on the field: 4
Single engine airplanes: 1
Multi engine airplanes: 1
Helicopters: 1
Gliders airplanes: 1
    

Instrument Procedures

There are no published instrument procedures at IN6.

Some nearby airports with instrument procedures:

KSBN - South Bend International Airport (10 nm E)
KPPO - La Porte Municipal Airport (12 nm SW)
KMGC - Michigan City Municipal Airport-Phillips Field (12 nm W)
3TR - Jerry Tyler Memorial Airport (16 nm NE)
C20 - Andrews University Airpark (16 nm NE)
 
Loc | Ops | Rwys | IFR | FBO | Links
Com | Nav | Svcs | Stats | Notes
Aerial photo
No photo
 
Airport distance calculator
Flying to Hudson Lake Seaplane Base? Find the distance to fly.

From to IN6

Sunrise and sunset
Times for 15-May-2021
 Local
(UTC-5)
 Zulu
(UTC)
Morning civil twilight04:5609:56
Sunrise05:2710:27
Sunset19:5800:58
Evening civil twilight20:2901:29

Current date and time
Zulu (UTC)  15-May-2021 09:09:30
Local (UTC-5)  15-May-2021 04:09:30
 
METAR
KSBN 
10nm E 
150854Z AUTO 00000KT 10SM CLR 07/02 A3024 RMK AO2 SLP242 T00720017 55005
KPPO 
12nm SW 
150855Z AUTO 00000KT 10SM CLR 06/03 A3024 RMK AO2 T00600029
KMGC 
12nm W 
150855Z AUTO 00000KT 10SM CLR 05/02 A3024 RMK AO2
TAF
KSBN 
10nm E 
150520Z 1506/1606 17002KT P6SM SCT100 BKN250 FM151500 20010KT P6SM OVC080 FM160300 17005KT P6SM VCSH OVC040
NOTAMs
Click for the latest NOTAMs
NOTAMs are issued by the DoD/FAA and will open in a separate window not controlled by AirNav.

 

 
 

Would you like to see your business listed on this page?

 If your business provides an interesting product or service to pilots, flight crews, aircraft, or users of the Hudson Lake Seaplane Base, you should consider listing it here.  To start the listing process, click on the button below
 
Add a business
 

Other Pages about Hudson Lake Seaplane Base

Update a link
 
Copyright © AirNav, LLC. All rights reserved. Privacy Policy  Contact